sensor_id;sensor_type;location;lat;lon;timestamp;P1;durP1;ratioP1;P2;durP2;ratioP2
69678;SDS011;56915;52.046;4.854;2023-04-03T00:00:33;3.10;;;0.95;;
69678;SDS011;56915;52.046;4.854;2023-04-03T00:03:00;2.55;;;0.80;;
69678;SDS011;56915;52.046;4.854;2023-04-03T00:05:27;3.92;;;0.85;;
69678;SDS011;56915;52.046;4.854;2023-04-03T00:07:54;4.40;;;0.90;;
69678;SDS011;56915;52.046;4.854;2023-04-03T00:10:21;1.95;;;0.80;;
69678;SDS011;56915;52.046;4.854;2023-04-03T00:12:48;2.22;;;0.93;;
69678;SDS011;56915;52.046;4.854;2023-04-03T00:15:15;3.42;;;0.95;;
69678;SDS011;56915;52.046;4.854;2023-04-03T00:17:42;1.60;;;0.80;;
69678;SDS011;56915;52.046;4.854;2023-04-03T00:20:09;1.40;;;0.47;;
69678;SDS011;56915;52.046;4.854;2023-04-03T00:22:36;2.28;;;0.82;;
69678;SDS011;56915;52.046;4.854;2023-04-03T00:25:03;2.35;;;0.80;;
69678;SDS011;56915;52.046;4.854;2023-04-03T00:27:30;3.13;;;1.13;;
69678;SDS011;56915;52.046;4.854;2023-04-03T00:29:57;2.75;;;1.10;;
69678;SDS011;56915;52.046;4.854;2023-04-03T00:32:24;3.67;;;0.80;;
69678;SDS011;56915;52.046;4.854;2023-04-03T00:34:50;2.63;;;0.98;;
69678;SDS011;56915;52.046;4.854;2023-04-03T00:37:17;4.18;;;1.20;;
69678;SDS011;56915;52.046;4.854;2023-04-03T00:39:44;2.47;;;0.93;;
69678;SDS011;56915;52.046;4.854;2023-04-03T00:42:11;4.43;;;1.08;;
69678;SDS011;56915;52.046;4.854;2023-04-03T00:47:05;3.55;;;0.80;;
69678;SDS011;56915;52.046;4.854;2023-04-03T00:49:37;2.70;;;1.00;;
69678;SDS011;56915;52.046;4.854;2023-04-03T00:52:05;2.75;;;0.90;;
69678;SDS011;56915;52.046;4.854;2023-04-03T00:54:35;1.50;;;0.90;;
69678;SDS011;56915;52.046;4.854;2023-04-03T00:57:03;4.57;;;0.90;;
69678;SDS011;56915;52.046;4.854;2023-04-03T00:59:33;4.32;;;0.90;;
69678;SDS011;56915;52.046;4.854;2023-04-03T01:02:02;2.45;;;0.98;;
69678;SDS011;56915;52.046;4.854;2023-04-03T01:04:31;1.92;;;1.08;;
69678;SDS011;56915;52.046;4.854;2023-04-03T01:07:01;2.97;;;1.00;;
69678;SDS011;56915;52.046;4.854;2023-04-03T01:09:41;2.30;;;0.97;;
69678;SDS011;56915;52.046;4.854;2023-04-03T01:14:57;5.93;;;2.08;;
69678;SDS011;56915;52.046;4.854;2023-04-03T01:20:36;2.72;;;1.10;;
69678;SDS011;56915;52.046;4.854;2023-04-03T01:25:54;2.88;;;1.10;;
69678;SDS011;56915;52.046;4.854;2023-04-03T01:28:30;2.53;;;1.05;;
69678;SDS011;56915;52.046;4.854;2023-04-03T01:33:54;2.53;;;1.17;;
69678;SDS011;56915;52.046;4.854;2023-04-03T01:36:22;4.83;;;1.40;;
69678;SDS011;56915;52.046;4.854;2023-04-03T01:38:53;3.17;;;1.27;;
69678;SDS011;56915;52.046;4.854;2023-04-03T01:41:21;5.53;;;1.45;;
69678;SDS011;56915;52.046;4.854;2023-04-03T01:43:48;3.00;;;1.20;;
69678;SDS011;56915;52.046;4.854;2023-04-03T01:46:16;2.95;;;1.17;;
69678;SDS011;56915;52.046;4.854;2023-04-03T01:48:43;3.70;;;1.10;;
69678;SDS011;56915;52.046;4.854;2023-04-03T01:51:10;2.72;;;1.17;;
69678;SDS011;56915;52.046;4.854;2023-04-03T01:53:37;3.78;;;1.20;;
69678;SDS011;56915;52.046;4.854;2023-04-03T01:56:04;2.55;;;1.20;;
69678;SDS011;56915;52.046;4.854;2023-04-03T01:58:31;5.03;;;1.70;;
69678;SDS011;56915;52.046;4.854;2023-04-03T02:00:58;4.77;;;1.37;;
69678;SDS011;56915;52.046;4.854;2023-04-03T02:03:25;3.55;;;1.33;;
69678;SDS011;56915;52.046;4.854;2023-04-03T02:05:52;3.35;;;1.20;;
69678;SDS011;56915;52.046;4.854;2023-04-03T02:08:19;3.20;;;1.10;;
69678;SDS011;56915;52.046;4.854;2023-04-03T02:10:47;3.05;;;1.20;;
69678;SDS011;56915;52.046;4.854;2023-04-03T02:13:15;3.73;;;1.40;;
69678;SDS011;56915;52.046;4.854;2023-04-03T02:15:43;3.65;;;1.35;;
69678;SDS011;56915;52.046;4.854;2023-04-03T02:18:11;4.20;;;1.50;;
69678;SDS011;56915;52.046;4.854;2023-04-03T02:20:39;4.72;;;1.30;;
69678;SDS011;56915;52.046;4.854;2023-04-03T02:23:06;6.60;;;1.30;;
69678;SDS011;56915;52.046;4.854;2023-04-03T02:25:33;3.53;;;1.40;;
69678;SDS011;56915;52.046;4.854;2023-04-03T02:28:03;5.25;;;1.13;;
69678;SDS011;56915;52.046;4.854;2023-04-03T02:30:30;3.97;;;1.50;;
69678;SDS011;56915;52.046;4.854;2023-04-03T02:32:57;4.03;;;1.30;;
69678;SDS011;56915;52.046;4.854;2023-04-03T02:35:24;5.13;;;1.30;;
69678;SDS011;56915;52.046;4.854;2023-04-03T02:37:51;3.20;;;1.40;;
69678;SDS011;56915;52.046;4.854;2023-04-03T02:40:18;3.90;;;1.35;;
69678;SDS011;56915;52.046;4.854;2023-04-03T02:42:45;3.25;;;1.20;;
69678;SDS011;56915;52.046;4.854;2023-04-03T02:45:12;3.67;;;1.23;;
69678;SDS011;56915;52.046;4.854;2023-04-03T02:47:39;4.43;;;1.40;;
69678;SDS011;56915;52.046;4.854;2023-04-03T02:50:06;2.60;;;1.40;;
69678;SDS011;56915;52.046;4.854;2023-04-03T02:52:33;2.83;;;1.42;;
69678;SDS011;56915;52.046;4.854;2023-04-03T02:55:00;5.63;;;1.60;;
69678;SDS011;56915;52.046;4.854;2023-04-03T02:57:27;4.85;;;1.55;;
69678;SDS011;56915;52.046;4.854;2023-04-03T02:59:53;2.83;;;1.40;;
69678;SDS011;56915;52.046;4.854;2023-04-03T03:02:20;3.10;;;1.50;;
69678;SDS011;56915;52.046;4.854;2023-04-03T03:04:47;3.55;;;1.50;;
69678;SDS011;56915;52.046;4.854;2023-04-03T03:07:14;6.05;;;1.55;;
69678;SDS011;56915;52.046;4.854;2023-04-03T03:09:41;5.70;;;1.50;;
69678;SDS011;56915;52.046;4.854;2023-04-03T03:12:08;4.85;;;1.50;;
69678;SDS011;56915;52.046;4.854;2023-04-03T03:14:35;4.63;;;1.50;;
69678;SDS011;56915;52.046;4.854;2023-04-03T03:17:01;6.32;;;1.95;;
69678;SDS011;56915;52.046;4.854;2023-04-03T03:19:28;3.72;;;1.48;;
69678;SDS011;56915;52.046;4.854;2023-04-03T03:21:55;6.40;;;1.50;;
69678;SDS011;56915;52.046;4.854;2023-04-03T03:24:23;3.80;;;1.25;;
69678;SDS011;56915;52.046;4.854;2023-04-03T03:26:49;4.27;;;1.70;;
69678;SDS011;56915;52.046;4.854;2023-04-03T03:29:16;6.63;;;1.42;;
69678;SDS011;56915;52.046;4.854;2023-04-03T03:31:43;3.15;;;1.48;;
69678;SDS011;56915;52.046;4.854;2023-04-03T03:34:10;4.25;;;1.50;;
69678;SDS011;56915;52.046;4.854;2023-04-03T03:36:36;6.85;;;1.52;;
69678;SDS011;56915;52.046;4.854;2023-04-03T03:39:04;6.30;;;2.37;;
69678;SDS011;56915;52.046;4.854;2023-04-03T03:41:31;5.75;;;1.73;;
69678;SDS011;56915;52.046;4.854;2023-04-03T03:43:57;2.80;;;1.50;;
69678;SDS011;56915;52.046;4.854;2023-04-03T03:46:24;4.80;;;1.88;;
69678;SDS011;56915;52.046;4.854;2023-04-03T03:48:51;5.13;;;1.60;;
69678;SDS011;56915;52.046;4.854;2023-04-03T03:51:18;5.47;;;1.80;;
69678;SDS011;56915;52.046;4.854;2023-04-03T03:53:44;4.90;;;1.77;;
69678;SDS011;56915;52.046;4.854;2023-04-03T03:56:11;3.35;;;1.60;;
69678;SDS011;56915;52.046;4.854;2023-04-03T03:58:38;5.28;;;2.05;;
69678;SDS011;56915;52.046;4.854;2023-04-03T04:01:05;4.57;;;1.80;;
69678;SDS011;56915;52.046;4.854;2023-04-03T04:03:33;3.50;;;1.80;;
69678;SDS011;56915;52.046;4.854;2023-04-03T04:06:00;4.97;;;1.60;;
69678;SDS011;56915;52.046;4.854;2023-04-03T04:08:27;5.40;;;2.10;;
69678;SDS011;56915;52.046;4.854;2023-04-03T04:10:54;4.82;;;1.80;;
69678;SDS011;56915;52.046;4.854;2023-04-03T04:13:21;6.95;;;1.85;;
69678;SDS011;56915;52.046;4.854;2023-04-03T04:15:47;3.47;;;1.80;;
69678;SDS011;56915;52.046;4.854;2023-04-03T04:18:14;6.20;;;1.60;;
69678;SDS011;56915;52.046;4.854;2023-04-03T04:20:41;4.85;;;1.77;;
69678;SDS011;56915;52.046;4.854;2023-04-03T04:23:10;5.50;;;2.05;;
69678;SDS011;56915;52.046;4.854;2023-04-03T04:25:37;6.60;;;1.90;;
69678;SDS011;56915;52.046;4.854;2023-04-03T04:28:04;4.00;;;1.80;;
69678;SDS011;56915;52.046;4.854;2023-04-03T04:30:32;7.22;;;1.95;;
69678;SDS011;56915;52.046;4.854;2023-04-03T04:32:58;4.85;;;1.80;;
69678;SDS011;56915;52.046;4.854;2023-04-03T04:35:26;4.50;;;1.80;;
69678;SDS011;56915;52.046;4.854;2023-04-03T04:37:52;4.53;;;1.98;;
69678;SDS011;56915;52.046;4.854;2023-04-03T04:40:19;6.33;;;1.70;;
69678;SDS011;56915;52.046;4.854;2023-04-03T04:42:47;3.80;;;1.70;;
69678;SDS011;56915;52.046;4.854;2023-04-03T04:45:13;5.72;;;1.90;;
69678;SDS011;56915;52.046;4.854;2023-04-03T04:47:41;6.70;;;1.90;;
69678;SDS011;56915;52.046;4.854;2023-04-03T04:50:08;3.92;;;1.73;;
69678;SDS011;56915;52.046;4.854;2023-04-03T04:52:35;4.57;;;2.13;;
69678;SDS011;56915;52.046;4.854;2023-04-03T04:55:03;7.47;;;2.20;;
69678;SDS011;56915;52.046;4.854;2023-04-03T04:57:30;5.35;;;1.92;;
69678;SDS011;56915;52.046;4.854;2023-04-03T04:59:57;3.78;;;1.92;;
69678;SDS011;56915;52.046;4.854;2023-04-03T05:02:23;6.72;;;2.50;;
69678;SDS011;56915;52.046;4.854;2023-04-03T05:04:51;6.67;;;2.37;;
69678;SDS011;56915;52.046;4.854;2023-04-03T05:07:18;7.20;;;2.28;;
69678;SDS011;56915;52.046;4.854;2023-04-03T05:09:45;4.13;;;1.90;;
69678;SDS011;56915;52.046;4.854;2023-04-03T05:12:12;5.90;;;2.10;;
69678;SDS011;56915;52.046;4.854;2023-04-03T05:14:39;5.75;;;2.08;;
69678;SDS011;56915;52.046;4.854;2023-04-03T05:17:06;7.63;;;2.30;;
69678;SDS011;56915;52.046;4.854;2023-04-03T05:19:32;6.55;;;2.20;;
69678;SDS011;56915;52.046;4.854;2023-04-03T05:21:59;6.22;;;1.88;;
69678;SDS011;56915;52.046;4.854;2023-04-03T05:24:26;7.57;;;2.40;;
69678;SDS011;56915;52.046;4.854;2023-04-03T05:26:53;5.47;;;2.15;;
69678;SDS011;56915;52.046;4.854;2023-04-03T05:29:20;4.90;;;2.13;;
69678;SDS011;56915;52.046;4.854;2023-04-03T05:31:50;4.80;;;1.90;;
69678;SDS011;56915;52.046;4.854;2023-04-03T05:34:17;6.15;;;1.90;;
69678;SDS011;56915;52.046;4.854;2023-04-03T05:36:44;4.60;;;2.10;;
69678;SDS011;56915;52.046;4.854;2023-04-03T05:39:12;6.60;;;1.88;;
69678;SDS011;56915;52.046;4.854;2023-04-03T05:41:38;5.90;;;2.07;;
69678;SDS011;56915;52.046;4.854;2023-04-03T05:44:05;4.93;;;1.95;;
69678;SDS011;56915;52.046;4.854;2023-04-03T05:46:32;4.90;;;1.95;;
69678;SDS011;56915;52.046;4.854;2023-04-03T05:48:59;7.05;;;1.98;;
69678;SDS011;56915;52.046;4.854;2023-04-03T05:51:28;8.95;;;1.90;;
69678;SDS011;56915;52.046;4.854;2023-04-03T05:54:01;7.27;;;2.00;;
69678;SDS011;56915;52.046;4.854;2023-04-03T05:56:35;3.40;;;1.70;;
69678;SDS011;56915;52.046;4.854;2023-04-03T05:59:02;5.72;;;2.00;;
69678;SDS011;56915;52.046;4.854;2023-04-03T06:01:28;5.63;;;1.85;;
69678;SDS011;56915;52.046;4.854;2023-04-03T06:03:55;4.38;;;1.98;;
69678;SDS011;56915;52.046;4.854;2023-04-03T06:06:25;7.07;;;1.70;;
69678;SDS011;56915;52.046;4.854;2023-04-03T06:08:52;5.68;;;1.80;;
69678;SDS011;56915;52.046;4.854;2023-04-03T06:11:19;4.65;;;2.10;;
69678;SDS011;56915;52.046;4.854;2023-04-03T06:13:47;6.28;;;1.77;;
69678;SDS011;56915;52.046;4.854;2023-04-03T06:16:14;6.05;;;1.88;;
69678;SDS011;56915;52.046;4.854;2023-04-03T06:18:43;4.70;;;1.80;;
69678;SDS011;56915;52.046;4.854;2023-04-03T06:21:10;6.70;;;2.08;;
69678;SDS011;56915;52.046;4.854;2023-04-03T06:23:37;5.10;;;2.17;;
69678;SDS011;56915;52.046;4.854;2023-04-03T06:26:04;4.22;;;1.80;;
69678;SDS011;56915;52.046;4.854;2023-04-03T06:28:31;5.90;;;1.70;;
69678;SDS011;56915;52.046;4.854;2023-04-03T06:30:58;5.40;;;1.83;;
69678;SDS011;56915;52.046;4.854;2023-04-03T06:33:25;5.80;;;1.83;;
69678;SDS011;56915;52.046;4.854;2023-04-03T06:35:56;6.20;;;2.10;;
69678;SDS011;56915;52.046;4.854;2023-04-03T06:38:24;6.70;;;1.95;;
69678;SDS011;56915;52.046;4.854;2023-04-03T06:40:51;3.92;;;1.80;;
69678;SDS011;56915;52.046;4.854;2023-04-03T06:43:18;6.73;;;2.20;;
69678;SDS011;56915;52.046;4.854;2023-04-03T06:45:47;6.10;;;1.80;;
69678;SDS011;56915;52.046;4.854;2023-04-03T06:48:14;4.28;;;1.73;;
69678;SDS011;56915;52.046;4.854;2023-04-03T06:50:41;5.45;;;1.80;;
69678;SDS011;56915;52.046;4.854;2023-04-03T06:53:08;4.65;;;1.70;;
69678;SDS011;56915;52.046;4.854;2023-04-03T06:55:35;3.87;;;1.80;;
69678;SDS011;56915;52.046;4.854;2023-04-03T06:58:03;7.03;;;1.80;;
69678;SDS011;56915;52.046;4.854;2023-04-03T07:00:30;5.13;;;1.85;;
69678;SDS011;56915;52.046;4.854;2023-04-03T07:02:57;4.20;;;1.70;;
69678;SDS011;56915;52.046;4.854;2023-04-03T07:05:24;6.13;;;1.70;;
69678;SDS011;56915;52.046;4.854;2023-04-03T07:07:52;5.07;;;1.70;;
69678;SDS011;56915;52.046;4.854;2023-04-03T07:10:19;5.47;;;1.67;;
69678;SDS011;56915;52.046;4.854;2023-04-03T07:12:46;4.38;;;1.52;;
69678;SDS011;56915;52.046;4.854;2023-04-03T07:15:13;2.75;;;1.40;;
69678;SDS011;56915;52.046;4.854;2023-04-03T07:17:40;4.75;;;1.63;;
69678;SDS011;56915;52.046;4.854;2023-04-03T07:20:08;5.50;;;1.70;;
69678;SDS011;56915;52.046;4.854;2023-04-03T07:22:35;4.45;;;1.30;;
69678;SDS011;56915;52.046;4.854;2023-04-03T07:25:02;4.63;;;1.52;;
69678;SDS011;56915;52.046;4.854;2023-04-03T07:27:29;3.95;;;1.42;;
69678;SDS011;56915;52.046;4.854;2023-04-03T07:29:56;4.30;;;1.30;;
69678;SDS011;56915;52.046;4.854;2023-04-03T07:32:23;3.77;;;1.50;;
69678;SDS011;56915;52.046;4.854;2023-04-03T07:34:50;5.50;;;1.52;;
69678;SDS011;56915;52.046;4.854;2023-04-03T07:37:17;4.65;;;1.70;;
69678;SDS011;56915;52.046;4.854;2023-04-03T07:39:44;5.00;;;1.40;;
69678;SDS011;56915;52.046;4.854;2023-04-03T07:42:19;3.28;;;1.40;;
69678;SDS011;56915;52.046;4.854;2023-04-03T07:44:46;4.73;;;1.70;;
69678;SDS011;56915;52.046;4.854;2023-04-03T07:47:13;6.40;;;1.50;;
69678;SDS011;56915;52.046;4.854;2023-04-03T07:49:40;3.72;;;1.60;;
69678;SDS011;56915;52.046;4.854;2023-04-03T07:52:07;4.95;;;1.40;;
69678;SDS011;56915;52.046;4.854;2023-04-03T07:54:35;3.35;;;1.30;;
69678;SDS011;56915;52.046;4.854;2023-04-03T07:57:02;3.70;;;1.47;;
69678;SDS011;56915;52.046;4.854;2023-04-03T07:59:29;3.90;;;1.10;;
69678;SDS011;56915;52.046;4.854;2023-04-03T08:01:56;4.00;;;1.27;;
69678;SDS011;56915;52.046;4.854;2023-04-03T08:04:23;4.80;;;1.33;;
69678;SDS011;56915;52.046;4.854;2023-04-03T08:06:51;7.00;;;1.30;;
69678;SDS011;56915;52.046;4.854;2023-04-03T08:09:18;4.00;;;1.40;;
69678;SDS011;56915;52.046;4.854;2023-04-03T08:11:45;5.15;;;1.33;;
69678;SDS011;56915;52.046;4.854;2023-04-03T08:14:12;4.28;;;1.30;;
69678;SDS011;56915;52.046;4.854;2023-04-03T08:16:43;4.93;;;1.50;;
69678;SDS011;56915;52.046;4.854;2023-04-03T08:19:11;6.03;;;1.58;;
69678;SDS011;56915;52.046;4.854;2023-04-03T08:21:50;5.43;;;1.50;;
69678;SDS011;56915;52.046;4.854;2023-04-03T08:24:17;8.73;;;1.25;;
69678;SDS011;56915;52.046;4.854;2023-04-03T08:26:44;4.13;;;1.20;;
69678;SDS011;56915;52.046;4.854;2023-04-03T08:29:11;4.20;;;1.30;;
69678;SDS011;56915;52.046;4.854;2023-04-03T08:31:38;4.70;;;1.30;;
69678;SDS011;56915;52.046;4.854;2023-04-03T08:34:05;6.10;;;1.50;;
69678;SDS011;56915;52.046;4.854;2023-04-03T08:36:32;4.47;;;1.33;;
69678;SDS011;56915;52.046;4.854;2023-04-03T08:38:59;3.25;;;1.05;;
69678;SDS011;56915;52.046;4.854;2023-04-03T08:44:03;3.25;;;1.02;;
69678;SDS011;56915;52.046;4.854;2023-04-03T08:52:05;2.38;;;0.88;;
69678;SDS011;56915;52.046;4.854;2023-04-03T08:54:40;3.88;;;0.93;;
69678;SDS011;56915;52.046;4.854;2023-04-03T08:57:53;3.33;;;0.80;;
69678;SDS011;56915;52.046;4.854;2023-04-03T09:02:43;2.85;;;0.88;;
69678;SDS011;56915;52.046;4.854;2023-04-03T09:05:20;2.95;;;0.80;;
69678;SDS011;56915;52.046;4.854;2023-04-03T09:10:49;3.70;;;1.00;;
69678;SDS011;56915;52.046;4.854;2023-04-03T09:13:33;9.13;;;1.00;;
69678;SDS011;56915;52.046;4.854;2023-04-03T09:16:21;2.80;;;0.93;;
69678;SDS011;56915;52.046;4.854;2023-04-03T09:19:02;3.38;;;0.80;;
69678;SDS011;56915;52.046;4.854;2023-04-03T09:21:37;2.28;;;0.60;;
69678;SDS011;56915;52.046;4.854;2023-04-03T09:24:09;2.05;;;0.68;;
69678;SDS011;56915;52.046;4.854;2023-04-03T09:26:42;2.90;;;0.50;;
69678;SDS011;56915;52.046;4.854;2023-04-03T09:29:14;2.03;;;0.55;;
69678;SDS011;56915;52.046;4.854;2023-04-03T09:31:44;3.15;;;0.50;;
69678;SDS011;56915;52.046;4.854;2023-04-03T09:34:17;2.15;;;0.60;;
69678;SDS011;56915;52.046;4.854;2023-04-03T09:36:53;2.45;;;0.60;;
69678;SDS011;56915;52.046;4.854;2023-04-03T09:39:23;2.47;;;0.67;;
69678;SDS011;56915;52.046;4.854;2023-04-03T09:44:29;1.92;;;0.60;;
69678;SDS011;56915;52.046;4.854;2023-04-03T09:46:59;4.60;;;0.80;;
69678;SDS011;56915;52.046;4.854;2023-04-03T09:49:43;1.58;;;0.43;;
69678;SDS011;56915;52.046;4.854;2023-04-03T09:55:17;1.85;;;0.52;;
69678;SDS011;56915;52.046;4.854;2023-04-03T09:57:48;1.20;;;0.50;;
69678;SDS011;56915;52.046;4.854;2023-04-03T10:00:23;1.40;;;0.50;;
69678;SDS011;56915;52.046;4.854;2023-04-03T10:02:59;1.13;;;0.40;;
69678;SDS011;56915;52.046;4.854;2023-04-03T10:08:14;30.65;;;1.63;;
69678;SDS011;56915;52.046;4.854;2023-04-03T10:10:48;4.22;;;0.70;;
69678;SDS011;56915;52.046;4.854;2023-04-03T10:13:36;3.28;;;0.50;;
69678;SDS011;56915;52.046;4.854;2023-04-03T10:16:17;1.60;;;0.50;;
69678;SDS011;56915;52.046;4.854;2023-04-03T10:21:33;1.38;;;0.73;;
69678;SDS011;56915;52.046;4.854;2023-04-03T10:24:25;1.83;;;0.50;;
69678;SDS011;56915;52.046;4.854;2023-04-03T10:27:22;2.75;;;0.47;;
69678;SDS011;56915;52.046;4.854;2023-04-03T10:53:04;2.83;;;0.30;;
69678;SDS011;56915;52.046;4.854;2023-04-03T11:01:02;0.97;;;0.30;;
69678;SDS011;56915;52.046;4.854;2023-04-03T11:03:38;2.42;;;0.50;;
69678;SDS011;56915;52.046;4.854;2023-04-03T11:06:14;3.00;;;0.40;;
69678;SDS011;56915;52.046;4.854;2023-04-03T11:09:00;1.75;;;0.30;;
69678;SDS011;56915;52.046;4.854;2023-04-03T11:11:44;1.23;;;0.30;;
69678;SDS011;56915;52.046;4.854;2023-04-03T11:14:32;0.50;;;0.20;;
69678;SDS011;56915;52.046;4.854;2023-04-03T11:17:04;4.53;;;0.40;;
69678;SDS011;56915;52.046;4.854;2023-04-03T11:22:23;3.08;;;0.40;;
69678;SDS011;56915;52.046;4.854;2023-04-03T11:24:59;0.73;;;0.30;;
69678;SDS011;56915;52.046;4.854;2023-04-03T11:27:56;0.80;;;0.30;;
69678;SDS011;56915;52.046;4.854;2023-04-03T11:30:37;0.63;;;0.20;;
69678;SDS011;56915;52.046;4.854;2023-04-03T11:36:18;3.97;;;0.40;;
69678;SDS011;56915;52.046;4.854;2023-04-03T11:38:54;0.70;;;0.20;;
69678;SDS011;56915;52.046;4.854;2023-04-03T11:41:25;1.13;;;0.43;;
69678;SDS011;56915;52.046;4.854;2023-04-03T11:44:25;1.00;;;0.30;;
69678;SDS011;56915;52.046;4.854;2023-04-03T11:47:08;1.38;;;0.30;;
69678;SDS011;56915;52.046;4.854;2023-04-03T11:49:54;1.02;;;0.30;;
69678;SDS011;56915;52.046;4.854;2023-04-03T11:53:12;5.97;;;0.80;;
69678;SDS011;56915;52.046;4.854;2023-04-03T12:11:15;0.77;;;0.38;;
69678;SDS011;56915;52.046;4.854;2023-04-03T12:14:15;1.23;;;0.40;;
69678;SDS011;56915;52.046;4.854;2023-04-03T12:16:46;0.60;;;0.40;;
69678;SDS011;56915;52.046;4.854;2023-04-03T12:22:04;1.47;;;0.50;;
69678;SDS011;56915;52.046;4.854;2023-04-03T12:24:32;1.23;;;0.40;;
69678;SDS011;56915;52.046;4.854;2023-04-03T12:43:17;0.93;;;0.45;;
69678;SDS011;56915;52.046;4.854;2023-04-03T12:45:47;3.17;;;0.80;;
69678;SDS011;56915;52.046;4.854;2023-04-03T12:48:17;2.23;;;0.50;;
69678;SDS011;56915;52.046;4.854;2023-04-03T12:50:48;1.15;;;0.50;;
69678;SDS011;56915;52.046;4.854;2023-04-03T12:53:19;1.70;;;0.60;;
69678;SDS011;56915;52.046;4.854;2023-04-03T12:55:56;5.32;;;0.70;;
69678;SDS011;56915;52.046;4.854;2023-04-03T12:58:24;3.10;;;0.50;;
69678;SDS011;56915;52.046;4.854;2023-04-03T13:01:01;1.23;;;0.53;;
69678;SDS011;56915;52.046;4.854;2023-04-03T13:03:39;2.45;;;0.68;;
69678;SDS011;56915;52.046;4.854;2023-04-03T13:06:26;2.88;;;0.52;;
69678;SDS011;56915;52.046;4.854;2023-04-03T13:08:58;1.88;;;0.70;;
69678;SDS011;56915;52.046;4.854;2023-04-03T13:11:32;2.55;;;0.60;;
69678;SDS011;56915;52.046;4.854;2023-04-03T13:14:04;1.10;;;0.60;;
69678;SDS011;56915;52.046;4.854;2023-04-03T13:16:40;1.88;;;0.47;;
69678;SDS011;56915;52.046;4.854;2023-04-03T13:19:15;1.80;;;0.50;;
69678;SDS011;56915;52.046;4.854;2023-04-03T13:21:43;1.65;;;0.75;;
69678;SDS011;56915;52.046;4.854;2023-04-03T13:24:10;1.42;;;0.70;;
69678;SDS011;56915;52.046;4.854;2023-04-03T13:26:41;1.30;;;0.50;;
69678;SDS011;56915;52.046;4.854;2023-04-03T13:29:19;1.55;;;0.60;;
69678;SDS011;56915;52.046;4.854;2023-04-03T13:31:57;1.30;;;0.50;;
69678;SDS011;56915;52.046;4.854;2023-04-03T13:34:27;1.27;;;0.52;;
69678;SDS011;56915;52.046;4.854;2023-04-03T13:36:58;4.07;;;1.02;;
69678;SDS011;56915;52.046;4.854;2023-04-03T13:39:28;3.30;;;0.60;;
69678;SDS011;56915;52.046;4.854;2023-04-03T13:41:58;2.83;;;0.70;;
69678;SDS011;56915;52.046;4.854;2023-04-03T13:44:35;1.35;;;0.60;;
69678;SDS011;56915;52.046;4.854;2023-04-03T13:49:42;1.40;;;0.70;;
69678;SDS011;56915;52.046;4.854;2023-04-03T13:52:28;2.23;;;0.60;;
69678;SDS011;56915;52.046;4.854;2023-04-03T13:54:58;2.17;;;0.50;;
69678;SDS011;56915;52.046;4.854;2023-04-03T13:57:31;2.13;;;0.60;;
69678;SDS011;56915;52.046;4.854;2023-04-03T13:59:58;2.55;;;0.60;;
69678;SDS011;56915;52.046;4.854;2023-04-03T14:02:32;2.58;;;0.60;;
69678;SDS011;56915;52.046;4.854;2023-04-03T14:05:00;1.57;;;0.80;;
69678;SDS011;56915;52.046;4.854;2023-04-03T14:07:29;1.52;;;0.60;;
69678;SDS011;56915;52.046;4.854;2023-04-03T14:09:57;1.75;;;0.80;;
69678;SDS011;56915;52.046;4.854;2023-04-03T14:12:30;4.97;;;0.80;;
69678;SDS011;56915;52.046;4.854;2023-04-03T14:15:00;1.83;;;0.60;;
69678;SDS011;56915;52.046;4.854;2023-04-03T14:17:28;1.77;;;0.60;;
69678;SDS011;56915;52.046;4.854;2023-04-03T14:19:58;2.45;;;0.68;;
69678;SDS011;56915;52.046;4.854;2023-04-03T14:22:28;2.47;;;0.70;;
69678;SDS011;56915;52.046;4.854;2023-04-03T14:24:58;2.92;;;0.60;;
69678;SDS011;56915;52.046;4.854;2023-04-03T14:27:29;1.92;;;0.80;;
69678;SDS011;56915;52.046;4.854;2023-04-03T14:30:00;1.43;;;0.60;;
69678;SDS011;56915;52.046;4.854;2023-04-03T14:32:29;3.88;;;0.90;;
69678;SDS011;56915;52.046;4.854;2023-04-03T14:34:56;4.22;;;0.60;;
69678;SDS011;56915;52.046;4.854;2023-04-03T14:37:26;2.75;;;0.80;;
69678;SDS011;56915;52.046;4.854;2023-04-03T14:39:56;6.20;;;0.88;;
69678;SDS011;56915;52.046;4.854;2023-04-03T14:42:25;1.13;;;0.60;;
69678;SDS011;56915;52.046;4.854;2023-04-03T14:45:03;2.47;;;0.80;;
69678;SDS011;56915;52.046;4.854;2023-04-03T14:47:32;1.60;;;0.70;;
69678;SDS011;56915;52.046;4.854;2023-04-03T14:50:03;1.40;;;0.60;;
69678;SDS011;56915;52.046;4.854;2023-04-03T14:52:32;4.57;;;0.60;;
69678;SDS011;56915;52.046;4.854;2023-04-03T14:55:01;2.87;;;0.77;;
69678;SDS011;56915;52.046;4.854;2023-04-03T14:57:30;4.82;;;0.90;;
69678;SDS011;56915;52.046;4.854;2023-04-03T14:59:58;2.80;;;0.80;;
69678;SDS011;56915;52.046;4.854;2023-04-03T15:04:54;5.10;;;0.75;;
69678;SDS011;56915;52.046;4.854;2023-04-03T15:10:17;2.30;;;0.68;;
69678;SDS011;56915;52.046;4.854;2023-04-03T15:12:50;3.25;;;0.80;;
69678;SDS011;56915;52.046;4.854;2023-04-03T15:15:18;2.88;;;0.90;;
69678;SDS011;56915;52.046;4.854;2023-04-03T15:17:47;1.33;;;0.70;;
69678;SDS011;56915;52.046;4.854;2023-04-03T15:20:21;1.53;;;0.70;;
69678;SDS011;56915;52.046;4.854;2023-04-03T15:22:50;2.08;;;1.08;;
69678;SDS011;56915;52.046;4.854;2023-04-03T15:25:17;3.63;;;1.10;;
69678;SDS011;56915;52.046;4.854;2023-04-03T15:27:45;2.65;;;0.75;;
69678;SDS011;56915;52.046;4.854;2023-04-03T15:30:13;2.13;;;0.80;;
69678;SDS011;56915;52.046;4.854;2023-04-03T15:32:42;5.05;;;1.13;;
69678;SDS011;56915;52.046;4.854;2023-04-03T15:35:09;2.35;;;1.17;;
69678;SDS011;56915;52.046;4.854;2023-04-03T15:37:36;2.80;;;1.00;;
69678;SDS011;56915;52.046;4.854;2023-04-03T15:40:04;2.90;;;1.05;;
69678;SDS011;56915;52.046;4.854;2023-04-03T15:42:31;2.22;;;1.10;;
69678;SDS011;56915;52.046;4.854;2023-04-03T15:44:58;2.30;;;1.20;;
69678;SDS011;56915;52.046;4.854;2023-04-03T15:47:26;2.78;;;1.48;;
69678;SDS011;56915;52.046;4.854;2023-04-03T15:49:53;2.30;;;1.23;;
69678;SDS011;56915;52.046;4.854;2023-04-03T15:52:21;2.10;;;1.50;;
69678;SDS011;56915;52.046;4.854;2023-04-03T15:54:48;2.35;;;1.50;;
69678;SDS011;56915;52.046;4.854;2023-04-03T15:57:16;3.72;;;2.00;;
69678;SDS011;56915;52.046;4.854;2023-04-03T15:59:42;3.27;;;1.67;;
69678;SDS011;56915;52.046;4.854;2023-04-03T16:02:09;1.40;;;1.13;;
69678;SDS011;56915;52.046;4.854;2023-04-03T16:04:39;2.42;;;1.17;;
69678;SDS011;56915;52.046;4.854;2023-04-03T16:07:06;1.90;;;1.20;;
69678;SDS011;56915;52.046;4.854;2023-04-03T16:09:33;2.30;;;1.33;;
69678;SDS011;56915;52.046;4.854;2023-04-03T16:12:01;2.10;;;1.27;;
69678;SDS011;56915;52.046;4.854;2023-04-03T16:14:28;2.00;;;1.27;;
69678;SDS011;56915;52.046;4.854;2023-04-03T16:16:56;2.00;;;1.40;;
69678;SDS011;56915;52.046;4.854;2023-04-03T16:19:25;3.28;;;1.65;;
69678;SDS011;56915;52.046;4.854;2023-04-03T16:21:53;1.98;;;1.45;;
69678;SDS011;56915;52.046;4.854;2023-04-03T16:24:20;2.30;;;1.50;;
69678;SDS011;56915;52.046;4.854;2023-04-03T16:26:48;4.72;;;1.85;;
69678;SDS011;56915;52.046;4.854;2023-04-03T16:29:15;3.10;;;1.80;;
69678;SDS011;56915;52.046;4.854;2023-04-03T16:31:41;3.60;;;2.08;;
69678;SDS011;56915;52.046;4.854;2023-04-03T16:34:08;3.25;;;1.90;;
69678;SDS011;56915;52.046;4.854;2023-04-03T16:36:35;2.47;;;1.93;;
69678;SDS011;56915;52.046;4.854;2023-04-03T16:39:03;10.40;;;2.33;;
69678;SDS011;56915;52.046;4.854;2023-04-03T16:41:31;4.15;;;2.00;;
69678;SDS011;56915;52.046;4.854;2023-04-03T16:43:58;3.72;;;1.55;;
69678;SDS011;56915;52.046;4.854;2023-04-03T16:46:25;2.38;;;1.75;;
69678;SDS011;56915;52.046;4.854;2023-04-03T16:48:54;3.27;;;1.67;;
69678;SDS011;56915;52.046;4.854;2023-04-03T16:51:20;4.22;;;2.22;;
69678;SDS011;56915;52.046;4.854;2023-04-03T16:53:47;3.78;;;1.50;;
69678;SDS011;56915;52.046;4.854;2023-04-03T16:56:14;2.50;;;1.40;;
69678;SDS011;56915;52.046;4.854;2023-04-03T16:58:41;5.20;;;1.55;;